createdAt,value
2023-04-07T00:03:20.762Z,100.00
2023-04-07T00:08:23.900Z,100.00
2023-04-07T00:13:27.954Z,100.00
2023-04-07T00:18:31.248Z,100.00
2023-04-07T00:23:38.716Z,100.00
2023-04-07T00:28:41.489Z,100.00
2023-04-07T00:33:44.313Z,100.00
2023-04-07T00:38:47.626Z,100.00
2023-04-07T00:43:54.190Z,100.00
2023-04-07T00:49:09.329Z,100.00
2023-04-07T00:54:14.124Z,100.00
2023-04-07T00:59:26.894Z,100.00
2023-04-07T01:04:36.628Z,100.00
2023-04-07T01:09:47.549Z,100.00
2023-04-07T01:15:05.943Z,100.00
2023-04-07T01:20:12.253Z,100.00
2023-04-07T01:25:25.582Z,100.00
2023-04-07T01:30:42.528Z,100.00
2023-04-07T01:36:07.563Z,100.00
2023-04-07T01:41:12.331Z,100.00
2023-04-07T01:46:16.337Z,100.00
2023-04-07T01:51:20.856Z,100.00
2023-04-07T01:56:24.028Z,100.00
2023-04-07T02:01:27.210Z,100.00
2023-04-07T02:06:35.967Z,100.00
2023-04-07T02:11:41.598Z,100.00
2023-04-07T02:16:46.794Z,100.00
2023-04-07T02:21:53.272Z,100.00
2023-04-07T02:26:57.316Z,100.00
2023-04-07T02:32:00.175Z,100.00
2023-04-07T02:37:09.678Z,100.00
2023-04-07T02:42:12.482Z,100.00
2023-04-07T02:47:15.248Z,100.00
2023-04-07T02:52:28.195Z,100.00
2023-04-07T02:57:31.270Z,100.00
2023-04-07T03:02:36.028Z,100.00
2023-04-07T03:07:39.287Z,100.00
2023-04-07T03:12:41.861Z,100.00
2023-04-07T03:17:46.228Z,100.00
2023-04-07T03:22:48.930Z,100.00
2023-04-07T03:27:51.762Z,100.00
2023-04-07T03:32:55.314Z,100.00
2023-04-07T03:37:57.984Z,100.00
2023-04-07T03:43:01.125Z,100.00
2023-04-07T03:48:04.649Z,100.00
2023-04-07T03:53:07.772Z,100.00
2023-04-07T03:58:11.709Z,100.00
2023-04-07T04:03:24.679Z,100.00
2023-04-07T04:08:28.208Z,100.00
2023-04-07T04:13:30.825Z,100.00
2023-04-07T04:18:33.811Z,100.00
2023-04-07T04:23:37.001Z,100.00
2023-04-07T04:28:39.554Z,100.00
2023-04-07T04:33:42.677Z,100.00
2023-04-07T04:38:45.655Z,100.00
2023-04-07T04:43:48.535Z,100.00
2023-04-07T04:48:52.555Z,100.00
2023-04-07T04:53:57.033Z,100.00
2023-04-07T04:58:59.868Z,100.00
2023-04-07T05:04:02.906Z,100.00
2023-04-07T05:09:07.087Z,100.00
2023-04-07T05:14:10.200Z,100.00
2023-04-07T05:19:12.962Z,100.00
2023-04-07T05:24:15.813Z,100.00
2023-04-07T05:29:18.797Z,100.00
2023-04-07T05:34:21.724Z,100.00
2023-04-07T05:39:24.939Z,100.00
2023-04-07T05:44:27.735Z,100.00
2023-04-07T05:49:30.556Z,100.00
2023-04-07T05:54:34.150Z,100.00
2023-04-07T05:59:37.725Z,100.00
2023-04-07T06:04:40.619Z,100.00
2023-04-07T06:09:43.590Z,100.00
2023-04-07T06:14:52.512Z,100.00
2023-04-07T06:19:55.067Z,100.00
2023-04-07T06:24:57.698Z,100.00
2023-04-07T06:30:01.646Z,100.00
2023-04-07T06:35:04.517Z,100.00
2023-04-07T06:40:08.946Z,100.00
2023-04-07T06:45:11.810Z,100.00
2023-04-07T06:50:14.697Z,100.00
2023-04-07T06:55:17.523Z,100.00
2023-04-07T07:00:24.995Z,100.00
2023-04-07T07:05:28.070Z,100.00
2023-04-07T07:10:41.136Z,100.00
2023-04-07T07:15:43.782Z,100.00
2023-04-07T07:20:46.944Z,100.00
2023-04-07T07:25:49.898Z,100.00
2023-04-07T07:30:52.660Z,100.00
2023-04-07T07:36:05.500Z,100.00
2023-04-07T07:41:08.751Z,100.00
2023-04-07T07:46:11.424Z,100.00
2023-04-07T07:51:15.901Z,100.00
2023-04-07T07:56:18.530Z,100.00
2023-04-07T08:01:21.573Z,100.00
2023-04-07T08:06:25.512Z,100.00
2023-04-07T08:11:28.253Z,100.00
2023-04-07T08:16:31.422Z,100.00
2023-04-07T08:21:34.373Z,100.00
2023-04-07T08:26:36.962Z,100.00
2023-04-07T08:31:39.740Z,100.00
2023-04-07T08:36:52.560Z,100.00
2023-04-07T08:41:56.360Z,100.00
2023-04-07T08:47:02.207Z,97.14
2023-04-07T08:52:11.401Z,95.45
2023-04-07T08:57:15.741Z,94.09
2023-04-07T09:02:20.287Z,89.65
2023-04-07T09:07:23.071Z,94.13
2023-04-07T09:12:26.399Z,89.47
2023-04-07T09:17:30.721Z,83.57
2023-04-07T09:22:38.308Z,83.27
2023-04-07T09:27:41.182Z,82.90
2023-04-07T09:32:44.123Z,82.72
2023-04-07T09:38:03.386Z,76.16
2023-04-07T09:43:17.197Z,78.63
2023-04-07T09:48:22.906Z,80.46
2023-04-07T09:53:49.864Z,79.26
2023-04-07T09:59:05.209Z,76.11
2023-04-07T10:04:08.403Z,77.10
2023-04-07T10:09:11.613Z,74.79
2023-04-07T10:14:29.146Z,71.50
2023-04-07T10:19:34.604Z,67.53
2023-04-07T10:24:49.308Z,72.78
2023-04-07T10:29:53.871Z,68.49
2023-04-07T10:34:59.257Z,65.13
2023-04-07T10:40:20.529Z,61.48
2023-04-07T10:45:53.131Z,60.39
2023-04-07T10:51:13.509Z,59.07
2023-04-07T10:56:16.350Z,58.54
2023-04-07T11:01:20.567Z,63.79
2023-04-07T11:06:25.530Z,60.88
2023-04-07T11:11:39.855Z,61.97
2023-04-07T11:16:44.573Z,62.42
2023-04-07T11:21:47.753Z,62.16
2023-04-07T11:26:50.739Z,63.55
2023-04-07T11:31:53.744Z,62.71
2023-04-07T11:37:00.543Z,63.13
2023-04-07T11:42:04.312Z,60.64
2023-04-07T11:47:07.425Z,60.13
2023-04-07T11:52:16.580Z,63.95
2023-04-07T11:57:30.164Z,59.42
2023-04-07T12:02:36.732Z,59.91
2023-04-07T12:07:42.650Z,64.19
2023-04-07T12:12:47.447Z,59.48
2023-04-07T12:17:50.553Z,60.66
2023-04-07T12:22:53.575Z,57.49
2023-04-07T12:27:56.588Z,56.18
2023-04-07T12:32:59.326Z,57.46
2023-04-07T12:38:02.030Z,59.93
2023-04-07T12:43:06.118Z,55.78
2023-04-07T12:48:08.850Z,54.35
2023-04-07T12:53:11.727Z,56.09
2023-04-07T12:58:15.582Z,56.81
2023-04-07T13:03:18.698Z,51.61
2023-04-07T13:08:22.699Z,53.12
2023-04-07T13:13:25.803Z,52.19
2023-04-07T13:18:28.648Z,49.88
2023-04-07T13:23:43.845Z,49.52
2023-04-07T13:28:47.172Z,48.42
2023-04-07T13:33:50.461Z,48.07
2023-04-07T13:38:53.492Z,47.05
2023-04-07T13:43:56.264Z,51.26
2023-04-07T13:48:59.709Z,48.49
2023-04-07T13:54:02.317Z,49.78
2023-04-07T13:59:07.217Z,47.91
2023-04-07T14:04:10.632Z,46.69
2023-04-07T14:09:16.979Z,46.91
2023-04-07T14:14:20.655Z,45.59
2023-04-07T14:19:25.841Z,46.60
2023-04-07T14:24:28.892Z,47.14
2023-04-07T14:29:31.656Z,47.29
2023-04-07T14:34:34.385Z,47.55
2023-04-07T14:40:01.282Z,48.40
2023-04-07T14:45:05.852Z,46.11
2023-04-07T14:50:08.877Z,47.46
2023-04-07T14:55:12.410Z,47.01
2023-04-07T15:00:15.761Z,47.63
2023-04-07T15:05:18.325Z,50.92
2023-04-07T15:10:22.076Z,48.80
2023-04-07T15:15:35.086Z,48.56
2023-04-07T15:20:37.717Z,47.84
2023-04-07T15:25:40.512Z,48.08
2023-04-07T15:30:45.644Z,47.40
2023-04-07T15:35:48.322Z,51.13
2023-04-07T15:40:51.360Z,47.70
2023-04-07T15:45:56.669Z,50.43
2023-04-07T15:50:59.545Z,51.54
2023-04-07T15:56:02.632Z,48.95
2023-04-07T16:01:06.254Z,51.49
2023-04-07T16:06:09.101Z,48.52
2023-04-07T16:11:12.180Z,51.48
2023-04-07T16:16:16.540Z,50.58
2023-04-07T16:21:19.339Z,49.62
2023-04-07T16:26:22.821Z,51.10
2023-04-07T16:31:25.465Z,51.99
2023-04-07T16:36:28.286Z,51.11
2023-04-07T16:41:30.951Z,51.18
2023-04-07T16:46:33.677Z,51.54
2023-04-07T16:51:38.068Z,50.83
2023-04-07T16:56:51.078Z,51.49
2023-04-07T17:02:14.688Z,52.07
2023-04-07T17:07:17.743Z,51.81
2023-04-07T17:12:20.626Z,61.35
2023-04-07T17:17:23.431Z,63.11
2023-04-07T17:22:26.810Z,62.42
2023-04-07T17:27:29.377Z,66.09
2023-04-07T17:32:32.962Z,78.90
2023-04-07T17:37:35.701Z,85.34
2023-04-07T17:42:39.826Z,85.88
2023-04-07T17:47:47.224Z,93.23
2023-04-07T17:52:50.869Z,100.00
2023-04-07T17:57:53.607Z,100.00
2023-04-07T18:02:56.925Z,100.00
2023-04-07T18:08:00.846Z,100.00
2023-04-07T18:13:06.041Z,100.00
2023-04-07T18:18:08.662Z,100.00
2023-04-07T18:23:11.617Z,100.00
2023-04-07T18:28:14.801Z,100.00
2023-04-07T18:33:20.952Z,100.00
2023-04-07T18:38:23.751Z,100.00
2023-04-07T18:43:27.584Z,100.00
2023-04-07T18:48:30.314Z,100.00
2023-04-07T18:53:36.960Z,100.00
2023-04-07T18:58:45.053Z,100.00
2023-04-07T19:03:48.803Z,100.00
2023-04-07T19:08:51.984Z,100.00
2023-04-07T19:13:54.805Z,100.00
2023-04-07T19:18:57.999Z,100.00
2023-04-07T19:24:00.742Z,100.00
2023-04-07T19:29:06.636Z,100.00
2023-04-07T19:34:09.442Z,100.00
2023-04-07T19:39:12.814Z,100.00
2023-04-07T19:44:16.026Z,100.00
2023-04-07T19:49:23.088Z,100.00
2023-04-07T19:54:25.728Z,100.00
2023-04-07T19:59:28.518Z,100.00
2023-04-07T20:04:32.388Z,100.00
2023-04-07T20:09:36.724Z,100.00
2023-04-07T20:14:39.761Z,100.00
2023-04-07T20:19:42.522Z,100.00
2023-04-07T20:24:45.407Z,100.00
2023-04-07T20:29:49.362Z,100.00
2023-04-07T20:34:54.798Z,100.00
2023-04-07T20:39:57.784Z,100.00
2023-04-07T20:45:04.441Z,100.00
2023-04-07T20:50:07.628Z,100.00
2023-04-07T20:55:11.391Z,100.00
2023-04-07T21:00:14.470Z,100.00
2023-04-07T21:05:18.800Z,100.00
2023-04-07T21:10:22.008Z,100.00
2023-04-07T21:15:24.641Z,100.00
2023-04-07T21:20:27.433Z,100.00
2023-04-07T21:25:31.638Z,100.00
2023-04-07T21:30:34.263Z,100.00
2023-04-07T21:35:37.128Z,100.00
2023-04-07T21:40:40.878Z,100.00
2023-04-07T21:45:43.596Z,100.00
2023-04-07T21:50:46.393Z,100.00
2023-04-07T21:55:49.317Z,100.00
2023-04-07T22:00:53.913Z,100.00
2023-04-07T22:06:01.162Z,100.00
2023-04-07T22:11:24.037Z,100.00
2023-04-07T22:16:27.073Z,100.00
2023-04-07T22:21:30.459Z,100.00
2023-04-07T22:26:34.433Z,100.00
2023-04-07T22:31:47.298Z,100.00
2023-04-07T22:36:50.123Z,100.00
2023-04-07T22:41:52.655Z,100.00
2023-04-07T22:46:57.190Z,100.00
2023-04-07T22:51:59.990Z,100.00
2023-04-07T22:57:03.368Z,100.00
2023-04-07T23:02:06.263Z,100.00
2023-04-07T23:07:08.872Z,100.00
2023-04-07T23:12:11.763Z,100.00
2023-04-07T23:17:14.479Z,100.00
2023-04-07T23:22:17.328Z,100.00
2023-04-07T23:27:20.183Z,100.00
2023-04-07T23:32:24.575Z,100.00
2023-04-07T23:37:34.078Z,100.00
2023-04-07T23:42:37.633Z,100.00
2023-04-07T23:47:40.484Z,100.00
2023-04-07T23:52:43.281Z,100.00
2023-04-07T23:57:45.986Z,100.00
